Goetzville, MI

8:15 PM EDT on June 02, 2015 (GMT -0400)
No. 8 Island | | Change Station
CLOSE
Current Station
Personal Weather Station
Location: Cedarville, MI
Elevation: 587 ft
Nearby Weather Stations

Elev 587 ft 45.98 °N, 84.31 °W | Updated 8 seconds ago

Clear
Clear
56.0 °F
Feels Like 56.0 °F
N
8.6
Wind Variable Wind from East
Gusts 10.3 mph

Today
High -- | Low -- °F
--% Chance of Precip.
Yesterday
High -- | Low -- °F
Precip. -- in
5:48 AM 9:20 PM
Full, 100% visible
Pressure 30.14 in
Visibility 10.0 miles
Clouds Clear
Dew Point 40 °F
Humidity 54%
Rainfall 0.00 in
Snow Depth Not available.
UV 1 out of 12
Pollen 7.70 out of 12
Air Quality Not available.
Flu Activity Sporadic
METAR KDRM 022354Z AUTO 15006KT 10SM CLR 15/00 A3014 RMK AO2 T01540002

More Conditions Fewer Conditions

Pressure 30.14 in
Visibility 10.0 miles
Clouds Clear
Dew Point 40 °F
Humidity 54%
Rainfall 0.00 in
Snow Depth Not available.
UV 1 out of 12
Pollen 7.70 out of 12
Air Quality Not available.
Flu Activity Sporadic
METAR KDRM 022354Z AUTO 15006KT 10SM CLR 15/00 A3014 RMK AO2 T01540002

More Conditions Fewer Conditions

Nowcast | as of 8:00 PM EDT on June 2, 2015

At 9 PM...mostly clear. Temperature 60. Southeast winds 6 mph. At 11 PM...mostly clear. Temperature 53. Light winds. At 1 am...mostly clear. Temperature 49. Light winds. At 3 am...mostly clear. Temperature 46. Light winds.

×

10-Day Weather Forecast

×

Almanac

Astronomy

Jun. 02, 2015 Rise Set
Actual Time
Civil Twilight
Nautical Twilight
Astronomical Twilight
Moon
Length of Visible Light
Length of Day
Tomorrow will be .
, % of the Moon is Illuminated

Today's Extremes

State Highs State Lows

Community

WunderPhotos

Upload Photos

1,826,074 photos uploaded!

WunderBlogs® & News

Nearby

Air Quality

  Air Quality AQ Index Pollutant
Not available.

Snow Depth

Station Depth Elevation

Earthquake Activity

City Distance Mag. Time & Date
Minimum magnitude displayed is 2.5.

Coastal Water Temperatures

Place Temperature

Stations

Nearby Weather Stations

Station Location Temp. Windchill Dew Point Humidity Wind Precip. Elev Updated Type